Time;durP1;ratioP1;P1;durP2;ratioP2;P2;SDS_P1;SDS_P2;PMS_P1;PMS_P2;Temp;Humidity;BMP_temperature;BMP_pressure;BME280_temperature;BME280_humidity;BME280_pressure;Samples;Min_cycle;Max_cycle;Signal;HPM_P1;HPM_P2
2022/07/27 00:00:43;;;;;;;;;;;;;;;23.32;81.64;153518.61;1606058;89;21784;-60
2022/07/27 00:03:11;;;;;;;;;;;;;;;23.26;82.20;153504.25;1605582;89;20206;-60
2022/07/27 00:05:38;;;;;;;;;;;;;;;23.22;82.64;153492.41;1606906;89;20234;-60
2022/07/27 00:08:05;;;;;;;;;;;;;;;23.21;82.55;153489.78;1606287;87;20218;-60
2022/07/27 00:10:33;;;;;;;;;;;;;;;23.19;82.71;153485.84;1609989;87;20252;-59
2022/07/27 00:13:00;;;;;;;;;;;;;;;23.20;83.63;153488.45;1632816;87;21158;-60
2022/07/27 00:15:28;;;;;;;;;;;;;;;23.20;84.28;153487.17;1632715;88;20412;-60
2022/07/27 00:17:59;;;;;;;;;;;;;;;23.24;83.99;153497.64;1624964;88;20200;-59
2022/07/27 00:20:30;;;;;;;;;;;;;;;23.18;83.16;153484.56;1604816;89;20149;-59
2022/07/27 00:22:57;;;;;;;;;;;;;;;23.15;84.39;153476.72;1604538;88;20212;-59
2022/07/27 00:25:25;;;;;;;;;;;;;;;23.14;84.96;153474.11;1604882;89;21151;-59
2022/07/27 00:27:52;;;;;;;;;;;;;;;23.14;85.19;153474.11;1605004;89;20224;-59
2022/07/27 00:30:19;;;;;;;;;;;;;;;23.11;84.32;153466.25;1604954;89;20440;-59
2022/07/27 00:32:46;;;;;;;;;;;;;;;23.07;84.48;153455.75;1604774;89;20244;-59
2022/07/27 00:35:13;;;;;;;;;;;;;;;23.03;84.65;153445.28;1604881;89;20164;-60
2022/07/27 00:37:41;;;;;;;;;;;;;;;23.00;84.74;153437.44;1605103;89;21284;-59
2022/07/27 00:40:09;;;;;;;;;;;;;;;22.96;84.38;153428.28;1605239;89;20211;-59
2022/07/27 00:42:35;;;;;;;;;;;;;;;22.93;84.83;153419.14;1605126;89;20153;-59
2022/07/27 00:45:03;;;;;;;;;;;;;;;22.92;85.64;153416.53;1604955;89;20199;-59
2022/07/27 00:47:30;;;;;;;;;;;;;;;22.93;86.46;153419.14;1604957;88;20149;-59
2022/07/27 00:49:57;;;;;;;;;;;;;;;22.92;86.27;153416.53;1604891;88;21231;-58
2022/07/27 00:52:24;;;;;;;;;;;;;;;22.87;85.15;153406.02;1605008;89;21142;-59
2022/07/27 00:54:50;;;;;;;;;;;;;;;22.82;85.16;153392.95;1605027;89;20188;-59
2022/07/27 00:57:17;;;;;;;;;;;;;;;22.81;85.28;153389.06;1604801;89;20202;-69
2022/07/27 00:59:45;;;;;;;;;;;;;;;22.79;85.38;153385.11;1592349;89;35933;-69
2022/07/27 01:02:12;;;;;;;;;;;;;;;22.76;85.57;153377.27;1604737;89;21899;-59
2022/07/27 01:04:38;;;;;;;;;;;;;;;22.75;85.88;153374.66;1605132;89;20520;-59
2022/07/27 01:07:05;;;;;;;;;;;;;;;22.73;86.38;153370.70;1606392;87;20189;-59
2022/07/27 01:12:19;;;;;;;;;;;;;;;22.72;86.65;153368.09;1605035;88;20474;-58
2022/07/27 01:14:47;;;;;;;;;;;;;;;22.71;86.94;153364.19;1605193;89;21273;-60
2022/07/27 01:17:14;;;;;;;;;;;;;;;22.70;87.23;153361.58;1604808;89;20216;-59
2022/07/27 01:19:42;;;;;;;;;;;;;;;22.70;87.34;153361.58;1581072;89;20240;-59
2022/07/27 01:22:08;;;;;;;;;;;;;;;22.66;87.44;153351.08;1581054;90;20448;-59
2022/07/27 01:24:35;;;;;;;;;;;;;;;22.66;87.69;153351.08;1581252;89;20446;-58
2022/07/27 01:27:02;;;;;;;;;;;;;;;22.64;87.89;153345.84;1581489;90;21140;-70
2022/07/27 01:29:30;;;;;;;;;;;;;;;22.63;88.14;153343.23;1580895;89;20477;-70
2022/07/27 01:31:57;;;;;;;;;;;;;;;22.61;88.38;153340.63;1581064;89;20239;-71
2022/07/27 01:34:24;;;;;;;;;;;;;;;22.62;88.72;153341.95;1580916;89;20160;-71
2022/07/27 01:36:50;;;;;;;;;;;;;;;22.61;88.90;153339.34;1580487;89;20525;-71
2022/07/27 01:39:19;;;;;;;;;;;;;;;22.60;89.04;153338.00;1580516;89;21174;-72
2022/07/27 01:41:46;;;;;;;;;;;;;;;22.60;89.28;153338.00;1581060;90;20335;-72
2022/07/27 01:44:14;;;;;;;;;;;;;;;22.61;89.62;153339.34;1580987;89;20480;-72
2022/07/27 01:46:41;;;;;;;;;;;;;;;22.62;89.85;153341.95;1581919;89;20275;-72
2022/07/27 01:49:08;;;;;;;;;;;;;;;22.63;89.91;153343.23;1581357;89;20172;-72
2022/07/27 01:51:35;;;;;;;;;;;;;;;22.64;90.77;153345.84;1581237;89;21991;-72
2022/07/27 01:54:01;;;;;;;;;;;;;;;22.64;91.48;153345.84;1581279;90;20189;-71
2022/07/27 01:56:28;;;;;;;;;;;;;;;22.63;90.27;153343.23;1581108;89;20485;-71
2022/07/27 01:58:55;;;;;;;;;;;;;;;22.54;89.47;153322.31;1581414;89;20172;-72
2022/07/27 02:01:22;;;;;;;;;;;;;;;22.45;89.46;153298.75;1581251;90;20197;-71
2022/07/27 02:03:48;;;;;;;;;;;;;;;22.41;90.79;153288.25;1581257;90;21279;-73
2022/07/27 02:06:15;;;;;;;;;;;;;;;22.41;91.42;153288.25;1602151;88;20466;-73
2022/07/27 02:08:42;;;;;;;;;;;;;;;22.44;92.05;153296.14;1606632;88;20121;-73
2022/07/27 02:13:54;;;;;;;;;;;;;;;22.51;92.16;153314.48;1632921;88;20208;-72
2022/07/27 02:16:20;;;;;;;;;;;;;;;22.45;90.27;153298.75;1632808;88;22161;-71
2022/07/27 02:18:47;;;;;;;;;;;;;;;22.30;89.86;153262.11;1615745;88;20453;-72
2022/07/27 02:21:14;;;;;;;;;;;;;;;22.26;90.20;153250.33;1605764;89;20186;-72
2022/07/27 02:23:43;;;;;;;;;;;;;;;22.25;91.17;153249.03;1605955;88;20206;-72
2022/07/27 02:26:09;;;;;;;;;;;;;;;22.27;91.82;153254.27;1606104;89;20482;-72
2022/07/27 02:28:38;;;;;;;;;;;;;;;22.37;92.36;153277.78;1605935;89;21282;-72
2022/07/27 02:31:04;;;;;;;;;;;;;;;22.50;92.05;153311.88;1605943;89;20184;-72
2022/07/27 02:33:31;;;;;;;;;;;;;;;22.58;91.28;153332.78;1605955;89;20615;-72
2022/07/27 02:35:58;;;;;;;;;;;;;;;22.68;91.18;153356.34;1606043;89;20189;-73
2022/07/27 02:38:24;;;;;;;;;;;;;;;22.82;91.11;153392.95;1606033;89;20446;-72
2022/07/27 02:40:51;;;;;;;;;;;;;;;22.96;90.21;153426.98;1606048;88;21158;-74
2022/07/27 02:43:20;;;;;;;;;;;;;;;23.01;89.30;153440.06;1605850;88;20226;-73
2022/07/27 02:45:47;;;;;;;;;;;;;;;22.99;88.78;153434.83;1606232;89;20249;-74
2022/07/27 02:48:14;;;;;;;;;;;;;;;22.96;88.42;153426.98;1606070;89;20178;-74
2022/07/27 02:50:40;;;;;;;;;;;;;;;22.93;88.15;153419.14;1606076;88;20155;-74
2022/07/27 02:53:07;;;;;;;;;;;;;;;22.92;87.93;153416.53;1605918;88;21266;-74
2022/07/27 02:55:34;;;;;;;;;;;;;;;22.92;87.73;153416.53;1605862;89;20174;-73
2022/07/27 02:58:01;;;;;;;;;;;;;;;22.90;87.68;153412.59;1605998;89;20206;-73
2022/07/27 03:00:29;;;;;;;;;;;;;;;22.89;87.70;153411.30;1605842;89;20166;-74
2022/07/27 03:02:56;;;;;;;;;;;;;;;22.91;87.75;153413.91;1605898;89;20189;-74
2022/07/27 03:05:22;;;;;;;;;;;;;;;22.95;87.47;153425.66;1605762;88;21254;-74
2022/07/27 03:07:51;;;;;;;;;;;;;;;23.06;86.81;153453.13;1606339;87;20202;-75
2022/07/27 03:10:18;;;;;;;;;;;;;;;23.13;85.99;153471.48;1606379;87;20205;-74
2022/07/27 03:12:45;;;;;;;;;;;;;;;23.15;85.77;153475.39;1605717;89;20857;-74
2022/07/27 03:15:12;;;;;;;;;;;;;;;23.15;85.58;153476.72;1605354;89;20205;-73
2022/07/27 03:17:41;;;;;;;;;;;;;;;23.20;85.26;153488.45;1605767;89;21235;-73
2022/07/27 03:20:10;;;;;;;;;;;;;;;23.22;84.09;153492.41;1606284;88;20198;-73
2022/07/27 03:22:36;;;;;;;;;;;;;;;23.11;83.18;153466.25;1606383;89;20191;-73
2022/07/27 03:25:04;;;;;;;;;;;;;;;23.09;84.01;153459.69;1606142;89;20270;-74
2022/07/27 03:27:31;;;;;;;;;;;;;;;23.16;83.57;153478.00;1606232;89;20545;-74
2022/07/27 03:29:59;;;;;;;;;;;;;;;23.25;83.40;153500.25;1606427;89;20213;-74
2022/07/27 03:32:26;;;;;;;;;;;;;;;23.41;83.00;153540.86;1605936;89;20210;-73
2022/07/27 03:34:52;;;;;;;;;;;;;;;23.56;82.86;153578.86;1605951;89;20206;-73
2022/07/27 03:37:19;;;;;;;;;;;;;;;23.77;82.25;153631.22;1605825;89;20252;-74
2022/07/27 03:39:46;;;;;;;;;;;;;;;23.89;81.46;153662.61;1606593;89;20234;-74
2022/07/27 03:42:13;;;;;;;;;;;;;;;23.98;81.13;153684.88;1606274;89;21251;-74
2022/07/27 03:44:40;;;;;;;;;;;;;;;24.07;80.71;153707.19;1606612;88;20138;-60
2022/07/27 03:47:06;;;;;;;;;;;;;;;24.16;80.35;153730.72;1606078;89;20344;-59
2022/07/27 03:49:33;;;;;;;;;;;;;;;24.25;80.04;153754.33;1606058;89;21405;-60
2022/07/27 03:51:59;;;;;;;;;;;;;;;24.35;79.88;153777.88;1605911;89;20293;-59
2022/07/27 03:54:27;;;;;;;;;;;;;;;24.44;79.56;153802.75;1605825;89;21078;-59
2022/07/27 03:56:54;;;;;;;;;;;;;;;24.53;79.53;153823.69;1605748;89;20238;-60
2022/07/27 03:59:21;;;;;;;;;;;;;;;24.60;79.51;153843.34;1605991;89;20218;-60
2022/07/27 04:01:47;;;;;;;;;;;;;;;24.70;79.37;153866.95;1606253;89;20213;-60
2022/07/27 04:04:15;;;;;;;;;;;;;;;24.78;79.38;153887.94;1606154;89;20266;-59
2022/07/27 04:06:43;;;;;;;;;;;;;;;24.85;78.98;153906.25;1606862;89;21875;-60
2022/07/27 04:09:10;;;;;;;;;;;;;;;24.89;78.84;153916.78;1606958;87;20204;-60
2022/07/27 04:11:37;;;;;;;;;;;;;;;24.91;78.74;153919.39;1605521;87;20153;-60
2022/07/27 04:14:04;;;;;;;;;;;;;;;24.89;78.95;153916.78;1604536;89;20188;-59
2022/07/27 04:16:31;;;;;;;;;;;;;;;24.94;79.35;153927.25;1604648;89;20155;-60
2022/07/27 04:18:58;;;;;;;;;;;;;;;25.05;79.52;153956.03;1605224;87;21155;-60
2022/07/27 04:21:25;;;;;;;;;;;;;;;25.16;79.75;153984.88;1605374;89;20504;-60
2022/07/27 04:23:52;;;;;;;;;;;;;;;25.28;79.76;154013.69;1605669;88;20194;-60
2022/07/27 04:26:18;;;;;;;;;;;;;;;25.40;79.65;154045.16;1605308;87;20182;-60
2022/07/27 04:28:45;;;;;;;;;;;;;;;25.49;79.13;154067.48;1605522;87;20579;-59
2022/07/27 04:31:12;;;;;;;;;;;;;;;25.53;78.85;154077.95;1605403;89;21266;-59
2022/07/27 04:33:39;;;;;;;;;;;;;;;25.59;78.82;154093.66;1605508;87;20274;-59
2022/07/27 04:36:07;;;;;;;;;;;;;;;25.71;78.83;154123.81;1605471;89;20223;-59
2022/07/27 04:38:35;;;;;;;;;;;;;;;25.79;79.03;154142.19;1605450;89;20190;-59
2022/07/27 04:41:02;;;;;;;;;;;;;;;25.89;79.19;154168.37;1605323;87;20225;-59
2022/07/27 04:43:29;;;;;;;;;;;;;;;25.97;79.23;154189.33;1605258;89;21635;-60
2022/07/27 04:45:55;;;;;;;;;;;;;;;26.02;79.19;154201.14;1605334;89;20190;-59
2022/07/27 04:48:22;;;;;;;;;;;;;;;26.08;79.36;154215.56;1605388;87;20191;-59
2022/07/27 04:50:49;;;;;;;;;;;;;;;26.16;79.31;154236.52;1605472;89;20190;-59
2022/07/27 04:53:15;;;;;;;;;;;;;;;26.26;79.32;154262.81;1605290;87;20197;-60
2022/07/27 04:55:43;;;;;;;;;;;;;;;26.37;79.10;154290.34;1605425;88;21257;-60
2022/07/27 04:58:10;;;;;;;;;;;;;;;26.40;78.76;154298.20;1605500;89;20383;-59
2022/07/27 05:00:37;;;;;;;;;;;;;;;26.44;78.86;154307.41;1605418;87;20183;-75
2022/07/27 05:03:03;;;;;;;;;;;;;;;26.54;78.60;154333.59;1605323;87;20203;-75
2022/07/27 05:05:31;;;;;;;;;;;;;;;26.64;78.27;154357.19;1605498;88;20098;-75
2022/07/27 05:08:00;;;;;;;;;;;;;;;26.71;77.73;154375.56;1605791;87;22146;-60
2022/07/27 05:10:28;;;;;;;;;;;;;;;26.77;77.64;154390.00;1605667;87;20209;-59
2022/07/27 05:12:56;;;;;;;;;;;;;;;26.85;77.47;154412.31;1604952;87;20229;-60
2022/07/27 05:15:23;;;;;;;;;;;;;;;26.99;77.28;154446.42;1604535;87;20764;-60
2022/07/27 05:17:51;;;;;;;;;;;;;;;27.11;76.80;154477.91;1605578;87;20505;-61
2022/07/27 05:20:18;;;;;;;;;;;;;;;27.21;76.26;154501.50;1605781;89;21227;-61
2022/07/27 05:22:45;;;;;;;;;;;;;;;27.26;75.71;154514.61;1605891;89;20243;-61
2022/07/27 05:25:12;;;;;;;;;;;;;;;27.31;75.57;154527.77;1606273;89;20230;-60
2022/07/27 05:27:40;;;;;;;;;;;;;;;27.40;74.98;154550.02;1606419;89;20192;-60
2022/07/27 05:30:08;;;;;;;;;;;;;;;27.45;74.34;154564.47;1606521;89;20218;-60
2022/07/27 05:32:34;;;;;;;;;;;;;;;27.48;74.02;154571.03;1606497;89;21796;-60
2022/07/27 05:35:03;;;;;;;;;;;;;;;27.56;73.74;154590.78;1606306;89;20231;-61
2022/07/27 05:37:30;;;;;;;;;;;;;;;27.62;73.40;154606.50;1606285;89;20475;-61
2022/07/27 05:39:56;;;;;;;;;;;;;;;27.69;73.21;154624.86;1606359;89;20715;-60
2022/07/27 05:42:23;;;;;;;;;;;;;;;27.74;72.86;154638.02;1606281;89;20227;-61
2022/07/27 05:44:54;;;;;;;;;;;;;;;27.81;72.71;154655.03;1606194;89;20570;-60
2022/07/27 05:47:20;;;;;;;;;;;;;;;27.90;72.34;154676.05;1606349;89;20214;-60
2022/07/27 05:49:48;;;;;;;;;;;;;;;27.98;72.11;154698.36;1606493;89;20222;-61
2022/07/27 05:52:15;;;;;;;;;;;;;;;28.08;71.64;154721.97;1606363;89;20234;-60
2022/07/27 05:54:44;;;;;;;;;;;;;;;28.12;71.29;154732.45;1606859;89;20242;-60
2022/07/27 05:57:11;;;;;;;;;;;;;;;28.20;71.20;154753.53;1606298;88;22136;-59
2022/07/27 05:59:38;;;;;;;;;;;;;;;28.30;70.53;154779.75;1606264;89;20167;-73
2022/07/27 06:02:05;;;;;;;;;;;;;;;28.40;70.02;154804.69;1623115;87;20188;-73
2022/07/27 06:04:32;;;;;;;;;;;;;;;28.50;69.82;154828.30;1620318;87;21415;-72
2022/07/27 06:09:44;;;;;;;;;;;;;;;28.62;69.20;154858.48;1628424;87;20545;-72
2022/07/27 06:12:12;;;;;;;;;;;;;;;28.69;68.99;154876.89;1620772;87;20207;-73
2022/07/27 06:14:39;;;;;;;;;;;;;;;28.70;68.73;154880.80;1605519;88;20223;-73
2022/07/27 06:17:06;;;;;;;;;;;;;;;28.73;68.68;154887.39;1604711;89;20232;-73
2022/07/27 06:19:33;;;;;;;;;;;;;;;28.75;68.83;154892.62;1638753;87;20203;-72
2022/07/27 06:22:00;;;;;;;;;;;;;;;28.78;68.83;154900.50;1631208;87;21149;-72
2022/07/27 06:24:26;;;;;;;;;;;;;;;28.83;68.67;154913.66;1605130;89;20202;-74
2022/07/27 06:26:53;;;;;;;;;;;;;;;28.86;68.64;154921.58;1603661;87;20539;-73
2022/07/27 06:29:20;;;;;;;;;;;;;;;28.93;68.54;154937.33;1605472;89;20474;-72
2022/07/27 06:31:47;;;;;;;;;;;;;;;29.02;68.46;154962.28;1605418;89;20202;-72
2022/07/27 06:34:14;;;;;;;;;;;;;;;29.07;68.09;154974.11;1612896;87;21304;-72
2022/07/27 06:36:43;;;;;;;;;;;;;;;29.05;68.19;154967.52;1615581;87;20138;-73
2022/07/27 06:39:10;;;;;;;;;;;;;;;29.07;68.24;154972.77;1617222;87;20284;-73
2022/07/27 06:41:37;;;;;;;;;;;;;;;29.14;67.94;154991.12;1607953;88;20177;-72
2022/07/27 06:44:04;;;;;;;;;;;;;;;29.18;67.73;155000.34;1613062;88;20221;-73
2022/07/27 06:46:31;;;;;;;;;;;;;;;29.21;67.90;155008.22;1610525;87;21156;-73
2022/07/27 06:48:58;;;;;;;;;;;;;;;29.30;67.79;155031.88;1605656;89;20460;-72
2022/07/27 06:51:25;;;;;;;;;;;;;;;29.41;67.49;155060.78;1605244;89;20234;-72
2022/07/27 06:53:53;;;;;;;;;;;;;;;29.50;67.13;155083.13;1605730;89;20178;-72
2022/07/27 06:56:21;;;;;;;;;;;;;;;29.56;66.83;155097.58;1608199;88;20186;-72
2022/07/27 06:58:49;;;;;;;;;;;;;;;29.60;66.64;155108.08;1605076;88;21243;-72
2022/07/27 07:01:17;;;;;;;;;;;;;;;29.64;66.74;155118.56;1605249;87;20979;-72
2022/07/27 07:03:43;;;;;;;;;;;;;;;29.73;66.69;155142.25;1608808;87;20151;-72
2022/07/27 07:06:10;;;;;;;;;;;;;;;29.84;66.57;155169.83;1612420;87;20213;-71
2022/07/27 07:08:38;;;;;;;;;;;;;;;29.92;66.26;155189.48;1604879;88;20177;-72
2022/07/27 07:11:10;;;;;;;;;;;;;;;29.99;66.01;155207.91;1605038;87;20491;-60
2022/07/27 07:13:38;;;;;;;;;;;;;;;30.00;65.67;155210.53;1606137;87;20185;-60
2022/07/27 07:16:06;;;;;;;;;;;;;;;29.95;65.80;155196.06;1621297;87;20139;-60
2022/07/27 07:18:34;;;;;;;;;;;;;;;29.90;66.15;155184.23;1625243;87;20164;-61
2022/07/27 07:21:02;;;;;;;;;;;;;;;29.87;66.50;155176.36;1624314;86;20483;-60
2022/07/27 07:23:30;;;;;;;;;;;;;;;29.87;66.62;155176.36;1621606;87;20496;-60
2022/07/27 07:25:58;;;;;;;;;;;;;;;29.86;66.70;155173.73;1625993;87;20191;-61
2022/07/27 07:28:24;;;;;;;;;;;;;;;29.87;66.51;155176.36;1616347;87;20187;-60
2022/07/27 07:30:51;;;;;;;;;;;;;;;29.90;66.40;155184.23;1614103;86;20236;-60
2022/07/27 07:33:18;;;;;;;;;;;;;;;29.88;66.24;155178.98;1631955;87;20505;-62
2022/07/27 07:35:45;;;;;;;;;;;;;;;29.83;66.15;155165.86;1607569;87;21132;-60
2022/07/27 07:38:11;;;;;;;;;;;;;;;29.72;66.12;155139.56;1624746;87;20505;-59
2022/07/27 07:40:38;;;;;;;;;;;;;;;29.60;66.77;155108.08;1610558;87;20174;-59
2022/07/27 07:43:05;;;;;;;;;;;;;;;29.56;67.07;155097.58;1625781;87;20251;-60
2022/07/27 07:45:34;;;;;;;;;;;;;;;29.57;67.15;155100.20;1629682;87;20190;-60
2022/07/27 07:48:00;;;;;;;;;;;;;;;29.62;67.19;155113.31;1621820;87;22056;-60
2022/07/27 07:50:29;;;;;;;;;;;;;;;29.71;67.19;155136.94;1612678;87;20917;-60
2022/07/27 07:52:55;;;;;;;;;;;;;;;29.78;66.87;155152.73;1625505;87;20942;-61
2022/07/27 07:55:24;;;;;;;;;;;;;;;29.78;66.99;155152.73;1634886;87;20574;-60
2022/07/27 07:57:50;;;;;;;;;;;;;;;29.80;66.73;155157.98;1615225;87;20200;-60
2022/07/27 08:00:17;;;;;;;;;;;;;;;29.77;66.50;155150.11;1631064;87;21278;-60
2022/07/27 08:02:47;;;;;;;;;;;;;;;29.69;66.66;155131.69;1629991;86;20169;-61
2022/07/27 08:05:14;;;;;;;;;;;;;;;29.62;66.97;155113.31;1627888;87;20225;-59
2022/07/27 08:07:42;;;;;;;;;;;;;;;29.63;67.05;155115.95;1635524;86;20219;-60
2022/07/27 08:10:10;;;;;;;;;;;;;;;29.58;67.03;155104.11;1631661;87;20218;-73
2022/07/27 08:12:41;;;;;;;;;;;;;;;29.56;67.46;155097.58;1630340;87;22148;-75
2022/07/27 08:15:08;;;;;;;;;;;;;;;29.61;67.79;155109.36;1606263;88;20189;-74
2022/07/27 08:17:36;;;;;;;;;;;;;;;29.78;67.62;155152.73;1606066;87;20662;-74
2022/07/27 08:20:05;;;;;;;;;;;;;;;29.92;67.24;155188.19;1602226;87;21071;-73
2022/07/27 08:22:32;;;;;;;;;;;;;;;29.97;66.95;155202.66;1604280;88;20197;-73
2022/07/27 08:24:59;;;;;;;;;;;;;;;29.99;66.84;155206.56;1603116;88;21847;-73
2022/07/27 08:27:27;;;;;;;;;;;;;;;30.04;66.55;155219.75;1601020;89;20206;-74
2022/07/27 08:29:54;;;;;;;;;;;;;;;30.13;65.87;155242.08;1604381;89;20455;-74
2022/07/27 08:32:20;;;;;;;;;;;;;;;30.20;65.40;155260.50;1605042;87;21068;-75
2022/07/27 08:34:47;;;;;;;;;;;;;;;30.23;65.20;155268.38;1604836;89;20190;-74
2022/07/27 08:37:14;;;;;;;;;;;;;;;30.22;64.87;155264.42;1605639;88;21172;-74
2022/07/27 08:39:41;;;;;;;;;;;;;;;30.10;65.05;155235.55;1608105;87;20214;-74
2022/07/27 08:42:09;;;;;;;;;;;;;;;30.01;65.62;155213.20;1615904;87;20180;-74
2022/07/27 08:44:40;;;;;;;;;;;;;;;29.93;66.06;155192.11;1614614;88;20786;-74
2022/07/27 08:47:09;;;;;;;;;;;;;;;29.91;66.56;155185.56;1604421;89;20177;-74
2022/07/27 08:49:40;;;;;;;;;;;;;;;29.87;67.05;155176.36;1604014;89;21298;-74
2022/07/27 08:52:09;;;;;;;;;;;;;;;29.85;67.16;155171.11;1606097;88;20757;-74
2022/07/27 08:54:39;;;;;;;;;;;;;;;29.80;67.30;155157.98;1603967;88;20191;-73
2022/07/27 08:57:08;;;;;;;;;;;;;;;29.73;67.50;155142.25;1614687;87;20619;-73
2022/07/27 08:59:38;;;;;;;;;;;;;;;29.67;67.78;155126.44;1601065;87;20246;-74
2022/07/27 09:02:09;;;;;;;;;;;;;;;29.70;67.68;155134.31;1602252;89;21865;-73
2022/07/27 09:04:36;;;;;;;;;;;;;;;29.69;67.86;155130.41;1602395;87;20199;-74
2022/07/27 09:07:02;;;;;;;;;;;;;;;29.65;67.60;155119.91;1585453;89;20188;-74
2022/07/27 09:09:29;;;;;;;;;;;;;;;29.60;67.91;155108.08;1604425;89;20448;-74
2022/07/27 09:12:03;;;;;;;;;;;;;;;29.60;67.96;155108.08;1585525;88;20189;-74
2022/07/27 09:14:32;;;;;;;;;;;;;;;29.59;67.71;155105.45;1609171;88;21890;-74
2022/07/27 09:17:01;;;;;;;;;;;;;;;29.61;67.71;155110.70;1610621;87;20193;-75
2022/07/27 09:19:28;;;;;;;;;;;;;;;29.63;67.39;155115.95;1613600;87;20596;-76
2022/07/27 09:21:55;;;;;;;;;;;;;;;29.62;67.51;155113.31;1605614;88;20189;-75
2022/07/27 09:24:22;;;;;;;;;;;;;;;29.61;67.27;155110.70;1608370;88;20174;-74
2022/07/27 09:26:49;;;;;;;;;;;;;;;29.58;67.52;155102.83;1608702;88;21277;-74
2022/07/27 09:29:16;;;;;;;;;;;;;;;29.62;67.54;155113.31;1610773;87;20611;-74
2022/07/27 09:31:48;;;;;;;;;;;;;;;29.63;67.12;155115.95;1606069;87;20190;-73
2022/07/27 09:34:29;;;;;;;;;;;;;;;29.59;67.35;155105.45;1607913;87;20459;-74
2022/07/27 09:36:57;;;;;;;;;;;;;;;29.55;67.79;155094.95;1607909;88;20461;-74
2022/07/27 09:39:25;;;;;;;;;;;;;;;29.54;67.80;155092.33;1605912;87;21143;-73
2022/07/27 09:41:53;;;;;;;;;;;;;;;29.49;68.27;155079.16;1609322;87;20426;-73
2022/07/27 09:44:33;;;;;;;;;;;;;;;29.45;68.22;155071.28;1608398;88;20193;-73
2022/07/27 09:47:00;;;;;;;;;;;;;;;29.41;68.35;155060.78;1609031;87;20478;-73
2022/07/27 09:49:31;;;;;;;;;;;;;;;29.41;68.62;155060.78;1605864;87;20541;-74
2022/07/27 09:52:01;;;;;;;;;;;;;;;29.41;68.70;155059.50;1606123;87;22131;-73
2022/07/27 09:54:45;;;;;;;;;;;;;;;29.40;68.66;155056.78;1608250;87;20476;-73
2022/07/27 09:57:12;;;;;;;;;;;;;;;29.36;68.81;155047.63;1609508;88;20501;-74
2022/07/27 09:59:39;;;;;;;;;;;;;;;29.36;69.12;155047.63;1608508;88;20646;-73
2022/07/27 10:02:06;;;;;;;;;;;;;;;29.37;69.26;155048.91;1607889;88;20502;-72
2022/07/27 10:04:35;;;;;;;;;;;;;;;29.37;69.49;155048.91;1610251;87;20494;-74
2022/07/27 10:07:02;;;;;;;;;;;;;;;29.35;69.54;155045.00;1609490;88;20523;-73
2022/07/27 10:09:30;;;;;;;;;;;;;;;29.36;69.68;155047.63;1608950;88;20197;-73
2022/07/27 10:12:00;;;;;;;;;;;;;;;29.36;69.48;155047.63;1612878;87;20197;-73
2022/07/27 10:14:27;;;;;;;;;;;;;;;29.35;69.50;155045.00;1595307;87;20183;-72
2022/07/27 10:16:54;;;;;;;;;;;;;;;29.33;69.56;155039.75;1617898;85;21275;-73
2022/07/27 10:19:35;;;;;;;;;;;;;;;29.30;69.60;155031.88;1611160;87;20163;-72
2022/07/27 10:22:02;;;;;;;;;;;;;;;29.26;69.79;155022.67;1614287;87;20470;-73
2022/07/27 10:24:35;;;;;;;;;;;;;;;29.22;70.07;155010.84;1609458;88;20210;-74
2022/07/27 10:27:20;;;;;;;;;;;;;;;29.18;70.41;155000.34;1610140;88;20189;-73
2022/07/27 10:29:47;;;;;;;;;;;;;;;29.14;70.34;154992.47;1608641;88;21240;-73
2022/07/27 10:32:26;;;;;;;;;;;;;;;29.10;70.17;154981.97;1612727;87;20396;-72
2022/07/27 10:34:54;;;;;;;;;;;;;;;29.02;70.00;154960.94;1610822;87;20218;-72
2022/07/27 10:37:26;;;;;;;;;;;;;;;28.93;69.72;154937.33;1610473;87;20442;-72
2022/07/27 10:42:43;;;;;;;;;;;;;;;28.79;70.30;154903.17;1610230;88;21168;-74
2022/07/27 10:45:13;;;;;;;;;;;;;;;28.76;70.46;154895.25;1612825;87;20466;-60
2022/07/27 10:47:43;;;;;;;;;;;;;;;28.75;70.56;154892.62;1609639;87;20253;-60
2022/07/27 10:50:20;;;;;;;;;;;;;;;28.69;70.46;154876.89;1609470;88;20403;-61
2022/07/27 10:52:59;;;;;;;;;;;;;;;28.58;70.72;154850.61;1592064;89;20216;-72
2022/07/27 10:55:35;;;;;;;;;;;;;;;28.52;71.39;154834.88;1554390;92;21272;-73
2022/07/27 10:58:11;;;;;;;;;;;;;;;28.53;72.02;154837.50;1554503;90;20227;-72
2022/07/27 11:00:54;;;;;;;;;;;;;;;28.55;72.30;154842.75;1561048;90;20460;-72
2022/07/27 11:03:34;;;;;;;;;;;;;;;28.56;72.59;154845.38;1588505;88;20190;-72
2022/07/27 11:06:21;;;;;;;;;;;;;;;28.58;72.84;154850.61;1615998;87;20680;-72
2022/07/27 11:08:49;;;;;;;;;;;;;;;28.60;73.16;154855.86;1609173;87;22299;-72
2022/07/27 11:11:18;;;;;;;;;;;;;;;28.57;72.73;154847.98;1614616;87;20181;-71
2022/07/27 11:13:46;;;;;;;;;;;;;;;28.50;73.08;154828.30;1615670;87;20154;-72
2022/07/27 11:16:15;;;;;;;;;;;;;;;28.43;73.54;154812.56;1612705;86;20294;-71
2022/07/27 11:18:42;;;;;;;;;;;;;;;28.42;73.71;154808.66;1612990;87;20253;-71
2022/07/27 11:21:35;;;;;;;;;;;;;;;28.46;73.36;154819.14;1607484;88;21276;-71
2022/07/27 11:24:06;;;;;;;;;;;;;;;28.51;73.17;154830.92;1610972;87;20331;-71
2022/07/27 11:26:41;;;;;;;;;;;;;;;28.56;72.90;154844.08;1614784;87;20636;-71
2022/07/27 11:29:10;;;;;;;;;;;;;;;28.55;72.90;154842.75;1615652;86;20252;-72
2022/07/27 11:31:37;;;;;;;;;;;;;;;28.46;73.40;154819.14;1585451;89;20607;-72
2022/07/27 11:34:05;;;;;;;;;;;;;;;28.41;73.96;154806.03;1583400;89;21057;-72
2022/07/27 11:36:36;;;;;;;;;;;;;;;28.38;74.30;154798.11;1593763;89;20177;-72
2022/07/27 11:39:04;;;;;;;;;;;;;;;28.36;74.27;154792.88;1595471;89;20199;-72
2022/07/27 11:41:32;;;;;;;;;;;;;;;28.33;74.44;154786.34;1590107;89;20539;-72
2022/07/27 11:44:11;;;;;;;;;;;;;;;28.33;74.73;154785.00;1585440;89;20192;-73
2022/07/27 11:46:41;;;;;;;;;;;;;;;28.36;74.91;154792.88;1581088;89;21148;-71
2022/07/27 11:49:11;;;;;;;;;;;;;;;28.39;74.84;154800.73;1586928;89;20253;-71
2022/07/27 11:51:40;;;;;;;;;;;;;;;28.42;74.46;154809.94;1585604;89;20394;-72
2022/07/27 11:54:11;;;;;;;;;;;;;;;28.38;74.41;154798.11;1581341;88;20255;-71
2022/07/27 11:56:42;;;;;;;;;;;;;;;28.30;74.70;154779.75;1583387;88;20201;-71
2022/07/27 11:59:11;;;;;;;;;;;;;;;28.30;74.75;154778.47;1586964;88;21907;-71
2022/07/27 12:01:41;;;;;;;;;;;;;;;28.27;74.77;154771.89;1586753;89;20175;-71
2022/07/27 12:04:12;;;;;;;;;;;;;;;28.27;74.75;154771.89;1587866;89;20216;-71
2022/07/27 12:06:41;;;;;;;;;;;;;;;28.27;74.47;154771.89;1585105;88;20433;-71
2022/07/27 12:09:09;;;;;;;;;;;;;;;28.24;74.87;154764.02;1586856;89;20202;-71
2022/07/27 12:12:08;;;;;;;;;;;;;;;28.25;75.09;154766.64;1589463;89;21145;-71
2022/07/27 12:14:37;;;;;;;;;;;;;;;28.23;75.05;154761.39;1586517;89;20260;-70
2022/07/27 12:17:11;;;;;;;;;;;;;;;28.18;75.28;154748.23;1591766;89;20442;-71
2022/07/27 12:19:38;;;;;;;;;;;;;;;28.12;75.38;154733.78;1581386;89;20192;-71
2022/07/27 12:22:05;;;;;;;;;;;;;;;28.04;75.63;154712.77;1561970;90;20198;-71
2022/07/27 12:24:37;;;;;;;;;;;;;;;27.97;76.15;154695.75;1583232;89;21946;-71
2022/07/27 12:27:14;;;;;;;;;;;;;;;27.93;76.13;154685.20;1581291;89;20189;-71
2022/07/27 12:30:01;;;;;;;;;;;;;;;27.85;76.72;154664.23;1593401;89;20225;-70
2022/07/27 12:32:30;;;;;;;;;;;;;;;27.76;77.40;154641.92;1584780;89;20230;-70
2022/07/27 12:34:57;;;;;;;;;;;;;;;27.66;77.97;154616.98;1588095;88;20230;-70
2022/07/27 12:37:29;;;;;;;;;;;;;;;27.60;78.49;154601.25;1582626;89;21255;-70
2022/07/27 12:39:56;;;;;;;;;;;;;;;27.53;79.14;154582.91;1588299;89;20275;-70
2022/07/27 12:42:31;;;;;;;;;;;;;;;27.50;79.46;154576.28;1585300;89;20184;-69
2022/07/27 12:44:57;;;;;;;;;;;;;;;27.52;79.67;154581.58;1588009;88;20182;-70
2022/07/27 12:47:40;;;;;;;;;;;;;;;27.55;79.74;154588.16;1581773;89;20164;-69
2022/07/27 12:50:26;;;;;;;;;;;;;;;27.54;79.51;154586.81;1586978;88;20579;-70
2022/07/27 12:52:53;;;;;;;;;;;;;;;27.57;79.32;154593.39;1586129;89;20223;-69